sensor_id;sensor_type;location;lat;lon;timestamp;P1;durP1;ratioP1;P2;durP2;ratioP2
17763;SDS011;22245;52.832;13.816;2022-08-04T00:01:20;8.50;;;7.28;;
17763;SDS011;22245;52.832;13.816;2022-08-04T00:04:48;6.55;;;5.88;;
17763;SDS011;22245;52.832;13.816;2022-08-04T00:08:18;10.13;;;5.85;;
17763;SDS011;22245;52.832;13.816;2022-08-04T00:11:48;8.35;;;5.60;;
17763;SDS011;22245;52.832;13.816;2022-08-04T00:15:14;9.02;;;5.43;;
17763;SDS011;22245;52.832;13.816;2022-08-04T00:18:38;6.13;;;5.53;;
17763;SDS011;22245;52.832;13.816;2022-08-04T00:22:03;5.88;;;5.38;;
17763;SDS011;22245;52.832;13.816;2022-08-04T00:25:29;6.93;;;5.43;;
17763;SDS011;22245;52.832;13.816;2022-08-04T00:28:51;7.68;;;5.38;;
17763;SDS011;22245;52.832;13.816;2022-08-04T00:32:15;5.80;;;5.22;;
17763;SDS011;22245;52.832;13.816;2022-08-04T00:35:54;9.73;;;5.72;;
17763;SDS011;22245;52.832;13.816;2022-08-04T00:39:18;6.88;;;5.38;;
17763;SDS011;22245;52.832;13.816;2022-08-04T00:42:41;9.18;;;5.88;;
17763;SDS011;22245;52.832;13.816;2022-08-04T00:46:23;8.95;;;5.68;;
17763;SDS011;22245;52.832;13.816;2022-08-04T00:50:00;8.38;;;5.30;;
17763;SDS011;22245;52.832;13.816;2022-08-04T00:53:28;9.88;;;5.88;;
17763;SDS011;22245;52.832;13.816;2022-08-04T00:57:02;8.93;;;5.65;;
17763;SDS011;22245;52.832;13.816;2022-08-04T01:00:57;6.18;;;5.35;;
17763;SDS011;22245;52.832;13.816;2022-08-04T01:04:23;6.75;;;5.10;;
17763;SDS011;22245;52.832;13.816;2022-08-04T01:08:10;6.18;;;5.55;;
17763;SDS011;22245;52.832;13.816;2022-08-04T01:11:51;6.53;;;5.60;;
17763;SDS011;22245;52.832;13.816;2022-08-04T01:15:25;6.15;;;5.45;;
17763;SDS011;22245;52.832;13.816;2022-08-04T01:27:08;11.27;;;5.38;;
17763;SDS011;22245;52.832;13.816;2022-08-04T01:30:34;5.95;;;5.15;;
17763;SDS011;22245;52.832;13.816;2022-08-04T01:33:59;7.78;;;5.68;;
17763;SDS011;22245;52.832;13.816;2022-08-04T01:37:28;8.82;;;5.72;;
17763;SDS011;22245;52.832;13.816;2022-08-04T01:41:02;6.18;;;5.38;;
17763;SDS011;22245;52.832;13.816;2022-08-04T01:44:26;6.53;;;5.60;;
17763;SDS011;22245;52.832;13.816;2022-08-04T01:47:49;6.25;;;5.65;;
17763;SDS011;22245;52.832;13.816;2022-08-04T01:51:15;6.22;;;5.57;;
17763;SDS011;22245;52.832;13.816;2022-08-04T01:54:40;6.85;;;6.18;;
17763;SDS011;22245;52.832;13.816;2022-08-04T01:58:02;6.97;;;6.03;;
17763;SDS011;22245;52.832;13.816;2022-08-04T02:01:25;11.05;;;5.97;;
17763;SDS011;22245;52.832;13.816;2022-08-04T02:04:49;7.78;;;6.47;;
17763;SDS011;22245;52.832;13.816;2022-08-04T02:08:13;10.50;;;6.53;;
17763;SDS011;22245;52.832;13.816;2022-08-04T02:11:42;8.95;;;5.55;;
17763;SDS011;22245;52.832;13.816;2022-08-04T02:15:13;6.32;;;5.55;;
17763;SDS011;22245;52.832;13.816;2022-08-04T02:18:45;5.97;;;5.40;;
17763;SDS011;22245;52.832;13.816;2022-08-04T02:22:17;6.13;;;5.63;;
17763;SDS011;22245;52.832;13.816;2022-08-04T02:25:43;5.38;;;4.88;;
17763;SDS011;22245;52.832;13.816;2022-08-04T02:29:11;5.80;;;5.20;;
17763;SDS011;22245;52.832;13.816;2022-08-04T02:32:37;5.78;;;5.10;;
17763;SDS011;22245;52.832;13.816;2022-08-04T02:36:00;6.22;;;5.63;;
17763;SDS011;22245;52.832;13.816;2022-08-04T02:39:27;6.57;;;5.72;;
17763;SDS011;22245;52.832;13.816;2022-08-04T02:43:08;5.75;;;5.18;;
17763;SDS011;22245;52.832;13.816;2022-08-04T02:46:31;6.78;;;5.45;;
17763;SDS011;22245;52.832;13.816;2022-08-04T02:49:55;6.32;;;5.47;;
17763;SDS011;22245;52.832;13.816;2022-08-04T02:53:17;6.07;;;5.45;;
17763;SDS011;22245;52.832;13.816;2022-08-04T02:56:44;7.38;;;4.93;;
17763;SDS011;22245;52.832;13.816;2022-08-04T03:00:10;8.20;;;5.15;;
17763;SDS011;22245;52.832;13.816;2022-08-04T03:03:36;6.10;;;5.50;;
17763;SDS011;22245;52.832;13.816;2022-08-04T03:07:18;9.55;;;6.65;;
17763;SDS011;22245;52.832;13.816;2022-08-04T03:23:06;8.32;;;5.72;;
17763;SDS011;22245;52.832;13.816;2022-08-04T03:27:04;8.20;;;5.93;;
17763;SDS011;22245;52.832;13.816;2022-08-04T03:30:34;7.82;;;6.20;;
17763;SDS011;22245;52.832;13.816;2022-08-04T03:34:13;7.57;;;6.30;;
17763;SDS011;22245;52.832;13.816;2022-08-04T03:38:06;7.18;;;6.30;;
17763;SDS011;22245;52.832;13.816;2022-08-04T03:53:43;7.07;;;6.38;;
17763;SDS011;22245;52.832;13.816;2022-08-04T03:57:28;8.43;;;6.10;;
17763;SDS011;22245;52.832;13.816;2022-08-04T04:01:11;9.18;;;6.30;;
17763;SDS011;22245;52.832;13.816;2022-08-04T04:05:22;7.20;;;6.50;;
17763;SDS011;22245;52.832;13.816;2022-08-04T04:09:38;8.80;;;5.90;;
17763;SDS011;22245;52.832;13.816;2022-08-04T04:13:34;9.48;;;5.80;;
17763;SDS011;22245;52.832;13.816;2022-08-04T04:17:20;8.73;;;6.32;;
17763;SDS011;22245;52.832;13.816;2022-08-04T04:21:05;8.25;;;6.68;;
17763;SDS011;22245;52.832;13.816;2022-08-04T04:24:51;7.47;;;6.10;;
17763;SDS011;22245;52.832;13.816;2022-08-04T04:28:29;8.00;;;6.35;;
17763;SDS011;22245;52.832;13.816;2022-08-04T04:32:09;7.10;;;5.95;;
17763;SDS011;22245;52.832;13.816;2022-08-04T04:35:47;8.82;;;5.68;;
17763;SDS011;22245;52.832;13.816;2022-08-04T04:39:19;8.60;;;6.18;;
17763;SDS011;22245;52.832;13.816;2022-08-04T04:42:55;7.13;;;5.95;;
17763;SDS011;22245;52.832;13.816;2022-08-04T04:47:08;7.93;;;6.18;;
17763;SDS011;22245;52.832;13.816;2022-08-04T04:51:02;8.77;;;6.70;;
17763;SDS011;22245;52.832;13.816;2022-08-04T04:54:31;11.68;;;6.22;;
17763;SDS011;22245;52.832;13.816;2022-08-04T04:57:57;8.77;;;6.20;;
17763;SDS011;22245;52.832;13.816;2022-08-04T05:01:26;7.78;;;6.63;;
17763;SDS011;22245;52.832;13.816;2022-08-04T05:05:05;9.98;;;7.10;;
17763;SDS011;22245;52.832;13.816;2022-08-04T05:08:42;8.27;;;6.65;;
17763;SDS011;22245;52.832;13.816;2022-08-04T05:12:19;9.82;;;6.68;;
17763;SDS011;22245;52.832;13.816;2022-08-04T05:16:14;12.00;;;7.55;;
17763;SDS011;22245;52.832;13.816;2022-08-04T05:19:42;9.05;;;7.38;;
17763;SDS011;22245;52.832;13.816;2022-08-04T05:23:14;9.63;;;7.00;;
17763;SDS011;22245;52.832;13.816;2022-08-04T05:26:40;8.43;;;6.90;;
17763;SDS011;22245;52.832;13.816;2022-08-04T05:30:06;10.43;;;7.40;;
17763;SDS011;22245;52.832;13.816;2022-08-04T05:33:32;13.30;;;7.57;;
17763;SDS011;22245;52.832;13.816;2022-08-04T05:37:02;17.48;;;7.80;;
17763;SDS011;22245;52.832;13.816;2022-08-04T05:40:28;13.65;;;7.55;;
17763;SDS011;22245;52.832;13.816;2022-08-04T05:43:50;10.50;;;7.45;;
17763;SDS011;22245;52.832;13.816;2022-08-04T05:47:12;14.48;;;7.72;;
17763;SDS011;22245;52.832;13.816;2022-08-04T05:50:37;12.60;;;8.23;;
17763;SDS011;22245;52.832;13.816;2022-08-04T05:54:00;13.27;;;7.35;;
17763;SDS011;22245;52.832;13.816;2022-08-04T05:57:23;11.80;;;7.55;;
17763;SDS011;22245;52.832;13.816;2022-08-04T06:00:46;10.38;;;8.00;;
17763;SDS011;22245;52.832;13.816;2022-08-04T06:04:12;11.60;;;8.18;;
17763;SDS011;22245;52.832;13.816;2022-08-04T06:07:36;10.25;;;7.70;;
17763;SDS011;22245;52.832;13.816;2022-08-04T06:11:19;13.65;;;8.13;;
17763;SDS011;22245;52.832;13.816;2022-08-04T06:14:43;8.63;;;7.47;;
17763;SDS011;22245;52.832;13.816;2022-08-04T06:18:08;9.02;;;7.75;;
17763;SDS011;22245;52.832;13.816;2022-08-04T06:21:52;12.32;;;7.25;;
17763;SDS011;22245;52.832;13.816;2022-08-04T06:25:21;10.07;;;7.97;;
17763;SDS011;22245;52.832;13.816;2022-08-04T06:28:47;8.50;;;7.63;;
17763;SDS011;22245;52.832;13.816;2022-08-04T06:32:12;11.38;;;7.93;;
17763;SDS011;22245;52.832;13.816;2022-08-04T06:35:55;11.48;;;8.05;;
17763;SDS011;22245;52.832;13.816;2022-08-04T06:39:20;8.80;;;7.70;;
17763;SDS011;22245;52.832;13.816;2022-08-04T06:42:46;9.32;;;7.50;;
17763;SDS011;22245;52.832;13.816;2022-08-04T06:46:10;11.80;;;8.73;;
17763;SDS011;22245;52.832;13.816;2022-08-04T06:49:35;9.68;;;8.10;;
17763;SDS011;22245;52.832;13.816;2022-08-04T06:53:21;10.20;;;8.00;;
17763;SDS011;22245;52.832;13.816;2022-08-04T06:56:44;12.02;;;8.20;;
17763;SDS011;22245;52.832;13.816;2022-08-04T07:00:12;10.77;;;8.15;;
17763;SDS011;22245;52.832;13.816;2022-08-04T07:03:40;9.50;;;8.02;;
17763;SDS011;22245;52.832;13.816;2022-08-04T07:07:03;11.00;;;7.78;;
17763;SDS011;22245;52.832;13.816;2022-08-04T07:10:27;10.63;;;8.35;;
17763;SDS011;22245;52.832;13.816;2022-08-04T07:13:52;13.07;;;8.20;;
17763;SDS011;22245;52.832;13.816;2022-08-04T07:17:18;12.32;;;8.05;;
17763;SDS011;22245;52.832;13.816;2022-08-04T07:20:49;11.95;;;8.32;;
17763;SDS011;22245;52.832;13.816;2022-08-04T07:24:15;9.77;;;7.82;;
17763;SDS011;22245;52.832;13.816;2022-08-04T07:27:41;10.88;;;8.20;;
17763;SDS011;22245;52.832;13.816;2022-08-04T07:31:12;9.13;;;8.13;;
17763;SDS011;22245;52.832;13.816;2022-08-04T07:34:56;11.73;;;8.27;;
17763;SDS011;22245;52.832;13.816;2022-08-04T07:38:20;10.02;;;8.10;;
17763;SDS011;22245;52.832;13.816;2022-08-04T07:41:47;9.68;;;8.50;;
17763;SDS011;22245;52.832;13.816;2022-08-04T07:45:11;11.30;;;8.02;;
17763;SDS011;22245;52.832;13.816;2022-08-04T07:48:33;10.40;;;7.50;;
17763;SDS011;22245;52.832;13.816;2022-08-04T07:51:57;10.88;;;7.68;;
17763;SDS011;22245;52.832;13.816;2022-08-04T07:55:20;9.15;;;7.53;;
17763;SDS011;22245;52.832;13.816;2022-08-04T07:58:42;8.68;;;7.80;;
17763;SDS011;22245;52.832;13.816;2022-08-04T08:02:07;9.80;;;8.02;;
17763;SDS011;22245;52.832;13.816;2022-08-04T08:05:30;9.38;;;7.68;;
17763;SDS011;22245;52.832;13.816;2022-08-04T08:09:15;10.18;;;7.53;;
17763;SDS011;22245;52.832;13.816;2022-08-04T08:12:39;11.10;;;7.88;;
17763;SDS011;22245;52.832;13.816;2022-08-04T08:16:11;16.58;;;8.70;;
17763;SDS011;22245;52.832;13.816;2022-08-04T08:19:34;8.90;;;8.00;;
17763;SDS011;22245;52.832;13.816;2022-08-04T08:22:56;10.85;;;8.07;;
17763;SDS011;22245;52.832;13.816;2022-08-04T08:26:20;13.13;;;7.45;;
17763;SDS011;22245;52.832;13.816;2022-08-04T08:29:42;11.07;;;7.53;;
17763;SDS011;22245;52.832;13.816;2022-08-04T08:33:06;12.45;;;7.18;;
17763;SDS011;22245;52.832;13.816;2022-08-04T08:36:31;7.90;;;7.20;;
17763;SDS011;22245;52.832;13.816;2022-08-04T08:40:01;9.82;;;7.15;;
17763;SDS011;22245;52.832;13.816;2022-08-04T08:44:04;8.23;;;5.93;;
17763;SDS011;22245;52.832;13.816;2022-08-04T08:48:10;7.75;;;6.47;;
17763;SDS011;22245;52.832;13.816;2022-08-04T08:51:52;7.07;;;5.93;;
17763;SDS011;22245;52.832;13.816;2022-08-04T08:55:28;8.90;;;6.30;;
17763;SDS011;22245;52.832;13.816;2022-08-04T09:02:43;10.52;;;6.80;;
17763;SDS011;22245;52.832;13.816;2022-08-04T09:06:35;11.00;;;6.93;;
17763;SDS011;22245;52.832;13.816;2022-08-04T09:10:16;8.48;;;6.00;;
17763;SDS011;22245;52.832;13.816;2022-08-04T09:13:42;9.60;;;5.95;;
17763;SDS011;22245;52.832;13.816;2022-08-04T09:17:10;6.03;;;4.82;;
17763;SDS011;22245;52.832;13.816;2022-08-04T09:20:42;7.55;;;5.47;;
17763;SDS011;22245;52.832;13.816;2022-08-04T09:24:10;9.15;;;5.90;;
17763;SDS011;22245;52.832;13.816;2022-08-04T09:27:57;6.20;;;5.50;;
17763;SDS011;22245;52.832;13.816;2022-08-04T09:31:29;8.07;;;4.85;;
17763;SDS011;22245;52.832;13.816;2022-08-04T09:35:18;12.20;;;4.95;;
17763;SDS011;22245;52.832;13.816;2022-08-04T09:38:48;3.80;;;3.50;;
17763;SDS011;22245;52.832;13.816;2022-08-04T09:42:19;3.80;;;3.45;;
17763;SDS011;22245;52.832;13.816;2022-08-04T09:45:51;7.07;;;3.40;;
17763;SDS011;22245;52.832;13.816;2022-08-04T09:49:22;5.32;;;4.30;;
17763;SDS011;22245;52.832;13.816;2022-08-04T09:52:53;4.53;;;3.85;;
17763;SDS011;22245;52.832;13.816;2022-08-04T09:56:22;7.85;;;3.42;;
17763;SDS011;22245;52.832;13.816;2022-08-04T09:59:52;5.15;;;3.35;;
17763;SDS011;22245;52.832;13.816;2022-08-04T10:03:31;3.80;;;2.88;;
17763;SDS011;22245;52.832;13.816;2022-08-04T10:10:59;5.28;;;3.20;;
17763;SDS011;22245;52.832;13.816;2022-08-04T10:14:35;7.25;;;3.58;;
17763;SDS011;22245;52.832;13.816;2022-08-04T10:18:08;3.63;;;3.25;;
17763;SDS011;22245;52.832;13.816;2022-08-04T10:21:37;3.53;;;3.22;;
17763;SDS011;22245;52.832;13.816;2022-08-04T10:25:21;4.15;;;3.13;;
17763;SDS011;22245;52.832;13.816;2022-08-04T10:29:15;4.13;;;3.00;;
17763;SDS011;22245;52.832;13.816;2022-08-04T10:32:44;5.00;;;3.25;;
17763;SDS011;22245;52.832;13.816;2022-08-04T10:36:11;5.22;;;3.30;;
17763;SDS011;22245;52.832;13.816;2022-08-04T10:39:39;3.28;;;2.97;;
17763;SDS011;22245;52.832;13.816;2022-08-04T10:43:32;15.85;;;5.20;;
17763;SDS011;22245;52.832;13.816;2022-08-04T10:47:03;4.47;;;3.15;;
17763;SDS011;22245;52.832;13.816;2022-08-04T10:50:36;8.25;;;3.20;;
17763;SDS011;22245;52.832;13.816;2022-08-04T10:54:05;4.85;;;3.28;;
17763;SDS011;22245;52.832;13.816;2022-08-04T10:57:31;3.28;;;2.97;;
17763;SDS011;22245;52.832;13.816;2022-08-04T11:00:56;6.63;;;3.20;;
17763;SDS011;22245;52.832;13.816;2022-08-04T11:04:24;3.70;;;3.30;;
17763;SDS011;22245;52.832;13.816;2022-08-04T11:07:55;9.65;;;3.40;;
17763;SDS011;22245;52.832;13.816;2022-08-04T11:11:24;4.05;;;2.95;;
17763;SDS011;22245;52.832;13.816;2022-08-04T11:15:11;4.57;;;3.30;;
17763;SDS011;22245;52.832;13.816;2022-08-04T11:18:41;4.00;;;2.70;;
17763;SDS011;22245;52.832;13.816;2022-08-04T11:22:09;3.50;;;3.05;;
17763;SDS011;22245;52.832;13.816;2022-08-04T11:25:40;5.03;;;3.10;;
17763;SDS011;22245;52.832;13.816;2022-08-04T11:29:15;4.28;;;3.10;;
17763;SDS011;22245;52.832;13.816;2022-08-04T11:32:42;3.22;;;2.92;;
17763;SDS011;22245;52.832;13.816;2022-08-04T11:36:11;4.43;;;2.70;;
17763;SDS011;22245;52.832;13.816;2022-08-04T11:39:41;4.20;;;2.83;;
17763;SDS011;22245;52.832;13.816;2022-08-04T11:43:09;5.50;;;3.08;;
17763;SDS011;22245;52.832;13.816;2022-08-04T11:46:58;9.88;;;3.30;;
17763;SDS011;22245;52.832;13.816;2022-08-04T11:50:24;7.53;;;3.17;;
17763;SDS011;22245;52.832;13.816;2022-08-04T11:53:52;5.45;;;2.78;;
17763;SDS011;22245;52.832;13.816;2022-08-04T11:57:16;3.35;;;3.05;;
17763;SDS011;22245;52.832;13.816;2022-08-04T12:00:41;4.03;;;3.00;;
17763;SDS011;22245;52.832;13.816;2022-08-04T12:04:23;4.22;;;3.13;;
17763;SDS011;22245;52.832;13.816;2022-08-04T12:07:50;4.70;;;2.83;;
17763;SDS011;22245;52.832;13.816;2022-08-04T12:11:23;3.38;;;3.03;;
17763;SDS011;22245;52.832;13.816;2022-08-04T12:14:54;3.15;;;2.90;;
17763;SDS011;22245;52.832;13.816;2022-08-04T12:18:21;5.25;;;2.80;;
17763;SDS011;22245;52.832;13.816;2022-08-04T12:21:51;4.90;;;2.90;;
17763;SDS011;22245;52.832;13.816;2022-08-04T12:25:20;6.28;;;3.08;;
17763;SDS011;22245;52.832;13.816;2022-08-04T12:28:49;9.70;;;3.17;;
17763;SDS011;22245;52.832;13.816;2022-08-04T12:32:31;5.63;;;3.10;;
17763;SDS011;22245;52.832;13.816;2022-08-04T12:36:11;5.10;;;3.08;;
17763;SDS011;22245;52.832;13.816;2022-08-04T12:39:40;4.40;;;3.00;;
17763;SDS011;22245;52.832;13.816;2022-08-04T12:43:28;5.63;;;2.95;;
17763;SDS011;22245;52.832;13.816;2022-08-04T12:46:57;5.15;;;3.17;;
17763;SDS011;22245;52.832;13.816;2022-08-04T12:50:43;5.72;;;2.88;;
17763;SDS011;22245;52.832;13.816;2022-08-04T12:54:09;6.55;;;2.90;;
17763;SDS011;22245;52.832;13.816;2022-08-04T12:57:32;4.30;;;2.97;;
17763;SDS011;22245;52.832;13.816;2022-08-04T13:00:57;4.80;;;2.83;;
17763;SDS011;22245;52.832;13.816;2022-08-04T13:04:42;4.20;;;3.00;;
17763;SDS011;22245;52.832;13.816;2022-08-04T13:08:10;6.72;;;3.05;;
17763;SDS011;22245;52.832;13.816;2022-08-04T13:11:38;3.33;;;2.78;;
17763;SDS011;22245;52.832;13.816;2022-08-04T13:15:05;3.40;;;2.88;;
17763;SDS011;22245;52.832;13.816;2022-08-04T13:18:38;3.80;;;2.88;;
17763;SDS011;22245;52.832;13.816;2022-08-04T13:22:06;5.85;;;3.05;;
17763;SDS011;22245;52.832;13.816;2022-08-04T13:25:28;3.33;;;2.83;;
17763;SDS011;22245;52.832;13.816;2022-08-04T13:29:12;4.50;;;3.20;;
17763;SDS011;22245;52.832;13.816;2022-08-04T13:32:36;3.00;;;2.75;;
17763;SDS011;22245;52.832;13.816;2022-08-04T13:35:59;3.10;;;2.58;;
17763;SDS011;22245;52.832;13.816;2022-08-04T13:39:21;7.20;;;2.97;;
17763;SDS011;22245;52.832;13.816;2022-08-04T13:42:45;8.27;;;2.90;;
17763;SDS011;22245;52.832;13.816;2022-08-04T13:46:12;7.75;;;3.10;;
17763;SDS011;22245;52.832;13.816;2022-08-04T13:53:33;4.97;;;3.00;;
17763;SDS011;22245;52.832;13.816;2022-08-04T13:56:57;5.20;;;3.10;;
17763;SDS011;22245;52.832;13.816;2022-08-04T14:00:22;4.43;;;2.92;;
17763;SDS011;22245;52.832;13.816;2022-08-04T14:03:55;5.43;;;3.00;;
17763;SDS011;22245;52.832;13.816;2022-08-04T14:07:19;9.48;;;3.33;;
17763;SDS011;22245;52.832;13.816;2022-08-04T14:10:51;4.95;;;3.28;;
17763;SDS011;22245;52.832;13.816;2022-08-04T14:14:15;6.18;;;3.00;;
17763;SDS011;22245;52.832;13.816;2022-08-04T14:17:39;5.80;;;2.97;;
17763;SDS011;22245;52.832;13.816;2022-08-04T14:21:04;3.40;;;2.83;;
17763;SDS011;22245;52.832;13.816;2022-08-04T14:24:28;3.03;;;2.70;;
17763;SDS011;22245;52.832;13.816;2022-08-04T14:27:50;6.40;;;3.03;;
17763;SDS011;22245;52.832;13.816;2022-08-04T14:31:35;3.72;;;3.25;;
17763;SDS011;22245;52.832;13.816;2022-08-04T14:35:15;4.63;;;2.92;;
17763;SDS011;22245;52.832;13.816;2022-08-04T14:38:42;3.90;;;2.83;;
17763;SDS011;22245;52.832;13.816;2022-08-04T14:42:06;5.03;;;2.85;;
17763;SDS011;22245;52.832;13.816;2022-08-04T14:45:29;4.13;;;2.80;;
17763;SDS011;22245;52.832;13.816;2022-08-04T14:49:00;4.13;;;3.00;;
17763;SDS011;22245;52.832;13.816;2022-08-04T14:52:29;4.68;;;2.92;;
17763;SDS011;22245;52.832;13.816;2022-08-04T14:55:53;6.32;;;2.80;;
17763;SDS011;22245;52.832;13.816;2022-08-04T14:59:16;5.45;;;3.20;;
17763;SDS011;22245;52.832;13.816;2022-08-04T15:02:39;7.43;;;2.80;;
17763;SDS011;22245;52.832;13.816;2022-08-04T15:06:03;4.05;;;3.20;;
17763;SDS011;22245;52.832;13.816;2022-08-04T15:09:33;4.20;;;3.00;;
17763;SDS011;22245;52.832;13.816;2022-08-04T15:12:59;3.20;;;2.75;;
17763;SDS011;22245;52.832;13.816;2022-08-04T15:16:25;4.35;;;2.80;;
17763;SDS011;22245;52.832;13.816;2022-08-04T15:19:48;4.75;;;3.40;;
17763;SDS011;22245;52.832;13.816;2022-08-04T15:23:15;9.63;;;3.13;;
17763;SDS011;22245;52.832;13.816;2022-08-04T15:26:37;3.33;;;2.80;;
17763;SDS011;22245;52.832;13.816;2022-08-04T15:30:04;3.00;;;2.70;;
17763;SDS011;22245;52.832;13.816;2022-08-04T15:33:27;5.13;;;3.20;;
17763;SDS011;22245;52.832;13.816;2022-08-04T15:36:55;3.28;;;2.97;;
17763;SDS011;22245;52.832;13.816;2022-08-04T15:40:22;4.00;;;2.83;;
17763;SDS011;22245;52.832;13.816;2022-08-04T15:43:57;5.05;;;2.75;;
17763;SDS011;22245;52.832;13.816;2022-08-04T15:47:38;3.22;;;2.92;;
17763;SDS011;22245;52.832;13.816;2022-08-04T15:51:10;4.75;;;3.10;;
17763;SDS011;22245;52.832;13.816;2022-08-04T15:54:34;7.32;;;2.90;;
17763;SDS011;22245;52.832;13.816;2022-08-04T15:57:57;5.60;;;3.20;;
17763;SDS011;22245;52.832;13.816;2022-08-04T16:01:20;4.20;;;2.75;;
17763;SDS011;22245;52.832;13.816;2022-08-04T16:04:44;3.63;;;2.58;;
17763;SDS011;22245;52.832;13.816;2022-08-04T16:08:15;3.25;;;2.83;;
17763;SDS011;22245;52.832;13.816;2022-08-04T16:11:37;4.38;;;2.70;;
17763;SDS011;22245;52.832;13.816;2022-08-04T16:19:02;4.30;;;2.47;;
17763;SDS011;22245;52.832;13.816;2022-08-04T16:22:33;3.83;;;2.30;;
17763;SDS011;22245;52.832;13.816;2022-08-04T16:25:56;3.80;;;2.20;;
17763;SDS011;22245;52.832;13.816;2022-08-04T16:29:28;3.15;;;2.22;;
17763;SDS011;22245;52.832;13.816;2022-08-04T16:32:56;5.03;;;2.03;;
17763;SDS011;22245;52.832;13.816;2022-08-04T16:36:21;4.05;;;1.90;;
17763;SDS011;22245;52.832;13.816;2022-08-04T16:40:25;3.00;;;2.22;;
17763;SDS011;22245;52.832;13.816;2022-08-04T16:48:09;2.67;;;2.20;;
17763;SDS011;22245;52.832;13.816;2022-08-04T16:51:32;4.22;;;2.45;;
17763;SDS011;22245;52.832;13.816;2022-08-04T16:54:57;4.07;;;2.05;;
17763;SDS011;22245;52.832;13.816;2022-08-04T16:58:28;3.00;;;2.30;;
17763;SDS011;22245;52.832;13.816;2022-08-04T17:01:55;3.72;;;2.50;;
17763;SDS011;22245;52.832;13.816;2022-08-04T17:05:21;3.20;;;2.22;;
17763;SDS011;22245;52.832;13.816;2022-08-04T17:08:59;3.63;;;2.20;;
17763;SDS011;22245;52.832;13.816;2022-08-04T17:12:27;3.72;;;2.30;;
17763;SDS011;22245;52.832;13.816;2022-08-04T17:15:51;2.53;;;2.28;;
17763;SDS011;22245;52.832;13.816;2022-08-04T17:19:14;5.18;;;2.22;;
17763;SDS011;22245;52.832;13.816;2022-08-04T17:22:45;4.85;;;2.63;;
17763;SDS011;22245;52.832;13.816;2022-08-04T17:26:09;4.00;;;2.30;;
17763;SDS011;22245;52.832;13.816;2022-08-04T17:29:33;4.07;;;2.40;;
17763;SDS011;22245;52.832;13.816;2022-08-04T17:33:05;3.78;;;2.30;;
17763;SDS011;22245;52.832;13.816;2022-08-04T17:36:34;8.85;;;2.45;;
17763;SDS011;22245;52.832;13.816;2022-08-04T17:40:05;4.70;;;2.47;;
17763;SDS011;22245;52.832;13.816;2022-08-04T17:43:33;2.70;;;2.50;;
17763;SDS011;22245;52.832;13.816;2022-08-04T17:47:17;4.03;;;2.63;;
17763;SDS011;22245;52.832;13.816;2022-08-04T17:50:41;11.50;;;3.25;;
17763;SDS011;22245;52.832;13.816;2022-08-04T17:54:03;11.35;;;3.47;;
17763;SDS011;22245;52.832;13.816;2022-08-04T17:57:26;5.78;;;2.85;;
17763;SDS011;22245;52.832;13.816;2022-08-04T18:00:52;11.10;;;3.30;;
17763;SDS011;22245;52.832;13.816;2022-08-04T18:04:47;8.00;;;3.17;;
17763;SDS011;22245;52.832;13.816;2022-08-04T18:08:30;5.85;;;2.80;;
17763;SDS011;22245;52.832;13.816;2022-08-04T18:12:00;5.43;;;2.88;;
17763;SDS011;22245;52.832;13.816;2022-08-04T18:15:23;5.22;;;3.10;;
17763;SDS011;22245;52.832;13.816;2022-08-04T18:19:06;12.93;;;3.17;;
17763;SDS011;22245;52.832;13.816;2022-08-04T18:22:29;5.95;;;3.30;;
17763;SDS011;22245;52.832;13.816;2022-08-04T18:25:52;5.10;;;3.42;;
17763;SDS011;22245;52.832;13.816;2022-08-04T18:29:14;3.90;;;3.10;;
17763;SDS011;22245;52.832;13.816;2022-08-04T18:32:51;4.50;;;3.03;;
17763;SDS011;22245;52.832;13.816;2022-08-04T18:36:34;5.13;;;4.40;;
17763;SDS011;22245;52.832;13.816;2022-08-04T18:39:57;6.70;;;4.10;;
17763;SDS011;22245;52.832;13.816;2022-08-04T18:43:40;3.53;;;3.20;;
17763;SDS011;22245;52.832;13.816;2022-08-04T18:47:15;7.35;;;3.35;;
17763;SDS011;22245;52.832;13.816;2022-08-04T18:50:56;5.68;;;3.60;;
17763;SDS011;22245;52.832;13.816;2022-08-04T18:54:38;5.32;;;3.20;;
17763;SDS011;22245;52.832;13.816;2022-08-04T18:58:00;6.18;;;2.83;;
17763;SDS011;22245;52.832;13.816;2022-08-04T19:01:32;4.38;;;3.50;;
17763;SDS011;22245;52.832;13.816;2022-08-04T19:05:14;3.92;;;2.90;;
17763;SDS011;22245;52.832;13.816;2022-08-04T19:08:38;5.32;;;3.22;;
17763;SDS011;22245;52.832;13.816;2022-08-04T19:12:04;8.30;;;3.42;;
17763;SDS011;22245;52.832;13.816;2022-08-04T19:15:26;6.18;;;3.45;;
17763;SDS011;22245;52.832;13.816;2022-08-04T19:18:55;8.35;;;4.00;;
17763;SDS011;22245;52.832;13.816;2022-08-04T19:22:17;8.77;;;3.53;;
17763;SDS011;22245;52.832;13.816;2022-08-04T19:25:55;10.82;;;4.85;;
17763;SDS011;22245;52.832;13.816;2022-08-04T19:29:24;9.55;;;3.67;;
17763;SDS011;22245;52.832;13.816;2022-08-04T19:32:57;5.85;;;3.35;;
17763;SDS011;22245;52.832;13.816;2022-08-04T19:36:21;6.13;;;3.70;;
17763;SDS011;22245;52.832;13.816;2022-08-04T19:39:48;6.00;;;3.60;;
17763;SDS011;22245;52.832;13.816;2022-08-04T19:43:11;10.82;;;4.65;;
17763;SDS011;22245;52.832;13.816;2022-08-04T19:46:34;6.63;;;4.65;;
17763;SDS011;22245;52.832;13.816;2022-08-04T19:49:57;8.85;;;4.57;;
17763;SDS011;22245;52.832;13.816;2022-08-04T19:53:26;8.48;;;3.80;;
17763;SDS011;22245;52.832;13.816;2022-08-04T19:57:02;4.18;;;3.38;;
17763;SDS011;22245;52.832;13.816;2022-08-04T20:00:28;5.88;;;3.50;;
17763;SDS011;22245;52.832;13.816;2022-08-04T20:03:53;16.85;;;15.15;;
17763;SDS011;22245;52.832;13.816;2022-08-04T20:07:29;19.83;;;17.92;;
17763;SDS011;22245;52.832;13.816;2022-08-04T20:10:54;8.82;;;6.65;;
17763;SDS011;22245;52.832;13.816;2022-08-04T20:14:18;11.02;;;9.55;;
17763;SDS011;22245;52.832;13.816;2022-08-04T20:17:52;10.75;;;6.72;;
17763;SDS011;22245;52.832;13.816;2022-08-04T20:21:33;13.65;;;10.70;;
17763;SDS011;22245;52.832;13.816;2022-08-04T20:25:15;7.00;;;5.85;;
17763;SDS011;22245;52.832;13.816;2022-08-04T20:28:58;5.93;;;5.20;;
17763;SDS011;22245;52.832;13.816;2022-08-04T20:32:20;11.18;;;8.77;;
17763;SDS011;22245;52.832;13.816;2022-08-04T20:35:44;10.35;;;8.15;;
17763;SDS011;22245;52.832;13.816;2022-08-04T20:39:25;11.82;;;8.70;;
17763;SDS011;22245;52.832;13.816;2022-08-04T20:42:49;6.75;;;5.47;;
17763;SDS011;22245;52.832;13.816;2022-08-04T20:46:13;11.00;;;7.13;;
17763;SDS011;22245;52.832;13.816;2022-08-04T20:49:37;7.28;;;5.53;;
17763;SDS011;22245;52.832;13.816;2022-08-04T20:53:01;7.13;;;5.00;;
17763;SDS011;22245;52.832;13.816;2022-08-04T20:56:36;6.18;;;4.28;;
17763;SDS011;22245;52.832;13.816;2022-08-04T21:00:10;5.75;;;4.32;;
17763;SDS011;22245;52.832;13.816;2022-08-04T21:03:34;5.47;;;4.18;;
17763;SDS011;22245;52.832;13.816;2022-08-04T21:07:19;6.03;;;4.82;;
17763;SDS011;22245;52.832;13.816;2022-08-04T21:10:43;5.22;;;4.72;;
17763;SDS011;22245;52.832;13.816;2022-08-04T21:14:06;5.28;;;4.28;;
17763;SDS011;22245;52.832;13.816;2022-08-04T21:17:30;6.82;;;4.30;;
17763;SDS011;22245;52.832;13.816;2022-08-04T21:21:13;9.30;;;3.70;;
17763;SDS011;22245;52.832;13.816;2022-08-04T21:24:35;8.15;;;3.83;;
17763;SDS011;22245;52.832;13.816;2022-08-04T21:28:00;6.95;;;4.28;;
17763;SDS011;22245;52.832;13.816;2022-08-04T21:31:23;4.90;;;4.10;;
17763;SDS011;22245;52.832;13.816;2022-08-04T21:34:46;4.50;;;4.00;;
17763;SDS011;22245;52.832;13.816;2022-08-04T21:38:14;4.57;;;4.15;;